sensor_id;sensor_type;location;lat;lon;timestamp;temperature;humidity
32753;DHT22;19121;52.428;10.816;2022-12-10T00:00:12;18.20;41.40
32753;DHT22;19121;52.428;10.816;2022-12-10T00:02:37;18.20;42.10
32753;DHT22;19121;52.428;10.816;2022-12-10T00:05:03;18.20;41.40
32753;DHT22;19121;52.428;10.816;2022-12-10T00:07:28;18.20;41.50
32753;DHT22;19121;52.428;10.816;2022-12-10T00:09:54;18.20;41.50
32753;DHT22;19121;52.428;10.816;2022-12-10T00:12:19;18.20;41.50
32753;DHT22;19121;52.428;10.816;2022-12-10T00:14:45;18.20;41.40
32753;DHT22;19121;52.428;10.816;2022-12-10T00:17:10;18.20;41.40
32753;DHT22;19121;52.428;10.816;2022-12-10T00:19:35;18.20;41.40
32753;DHT22;19121;52.428;10.816;2022-12-10T00:22:01;18.20;41.40
32753;DHT22;19121;52.428;10.816;2022-12-10T00:24:26;18.20;41.40
32753;DHT22;19121;52.428;10.816;2022-12-10T00:26:51;18.20;41.40
32753;DHT22;19121;52.428;10.816;2022-12-10T00:29:17;18.10;41.40
32753;DHT22;19121;52.428;10.816;2022-12-10T00:31:42;18.10;41.30
32753;DHT22;19121;52.428;10.816;2022-12-10T00:34:08;18.20;41.40
32753;DHT22;19121;52.428;10.816;2022-12-10T00:36:35;18.20;41.40
32753;DHT22;19121;52.428;10.816;2022-12-10T00:39:02;18.10;41.40
32753;DHT22;19121;52.428;10.816;2022-12-10T00:41:28;18.10;41.30
32753;DHT22;19121;52.428;10.816;2022-12-10T00:43:53;18.10;41.30
32753;DHT22;19121;52.428;10.816;2022-12-10T00:46:19;18.10;41.30
32753;DHT22;19121;52.428;10.816;2022-12-10T00:48:45;18.10;41.30
32753;DHT22;19121;52.428;10.816;2022-12-10T00:51:11;18.10;41.30
32753;DHT22;19121;52.428;10.816;2022-12-10T00:53:37;18.10;41.30
32753;DHT22;19121;52.428;10.816;2022-12-10T00:56:03;18.10;41.30
32753;DHT22;19121;52.428;10.816;2022-12-10T00:58:30;18.10;41.30
32753;DHT22;19121;52.428;10.816;2022-12-10T01:01:06;18.10;41.30
32753;DHT22;19121;52.428;10.816;2022-12-10T01:03:31;18.10;41.30
32753;DHT22;19121;52.428;10.816;2022-12-10T01:05:56;18.10;41.30
32753;DHT22;19121;52.428;10.816;2022-12-10T01:08:22;18.10;41.30
32753;DHT22;19121;52.428;10.816;2022-12-10T01:10:52;18.10;41.30
32753;DHT22;19121;52.428;10.816;2022-12-10T01:13:17;18.10;41.30
32753;DHT22;19121;52.428;10.816;2022-12-10T01:15:43;18.10;41.20
32753;DHT22;19121;52.428;10.816;2022-12-10T01:18:08;18.10;41.30
32753;DHT22;19121;52.428;10.816;2022-12-10T01:20:34;18.10;41.20
32753;DHT22;19121;52.428;10.816;2022-12-10T01:23:00;18.10;41.20
32753;DHT22;19121;52.428;10.816;2022-12-10T01:25:25;18.10;41.20
32753;DHT22;19121;52.428;10.816;2022-12-10T01:27:51;18.10;41.20
32753;DHT22;19121;52.428;10.816;2022-12-10T01:30:16;18.10;41.20
32753;DHT22;19121;52.428;10.816;2022-12-10T01:32:41;18.10;41.20
32753;DHT22;19121;52.428;10.816;2022-12-10T01:35:07;18.10;41.20
32753;DHT22;19121;52.428;10.816;2022-12-10T01:37:32;18.10;41.20
32753;DHT22;19121;52.428;10.816;2022-12-10T01:39:58;18.10;41.20
32753;DHT22;19121;52.428;10.816;2022-12-10T01:42:23;18.10;41.20
32753;DHT22;19121;52.428;10.816;2022-12-10T01:47:14;18.10;41.20
32753;DHT22;19121;52.428;10.816;2022-12-10T01:49:39;18.10;41.20
32753;DHT22;19121;52.428;10.816;2022-12-10T01:52:07;18.10;41.20
32753;DHT22;19121;52.428;10.816;2022-12-10T01:54:34;18.10;41.20
32753;DHT22;19121;52.428;10.816;2022-12-10T01:57:03;18.10;41.20
32753;DHT22;19121;52.428;10.816;2022-12-10T01:59:29;18.10;41.80
32753;DHT22;19121;52.428;10.816;2022-12-10T02:02:05;18.10;41.20
32753;DHT22;19121;52.428;10.816;2022-12-10T02:04:35;18.10;41.20
32753;DHT22;19121;52.428;10.816;2022-12-10T02:07:19;18.10;41.20
32753;DHT22;19121;52.428;10.816;2022-12-10T02:09:57;18.10;41.20
32753;DHT22;19121;52.428;10.816;2022-12-10T02:12:26;18.10;41.20
32753;DHT22;19121;52.428;10.816;2022-12-10T02:14:55;18.10;41.20
32753;DHT22;19121;52.428;10.816;2022-12-10T02:17:36;18.10;41.10
32753;DHT22;19121;52.428;10.816;2022-12-10T02:20:11;18.10;41.20
32753;DHT22;19121;52.428;10.816;2022-12-10T02:22:39;18.10;41.10
32753;DHT22;19121;52.428;10.816;2022-12-10T02:25:07;18.10;41.10
32753;DHT22;19121;52.428;10.816;2022-12-10T02:30:09;18.10;41.10
32753;DHT22;19121;52.428;10.816;2022-12-10T02:32:36;18.10;41.20
32753;DHT22;19121;52.428;10.816;2022-12-10T02:35:04;18.10;41.20
32753;DHT22;19121;52.428;10.816;2022-12-10T02:37:33;18.10;41.80
32753;DHT22;19121;52.428;10.816;2022-12-10T02:40:00;18.00;41.10
32753;DHT22;19121;52.428;10.816;2022-12-10T02:42:28;18.10;41.10
32753;DHT22;19121;52.428;10.816;2022-12-10T02:44:54;18.10;41.10
32753;DHT22;19121;52.428;10.816;2022-12-10T02:47:21;18.10;41.10
32753;DHT22;19121;52.428;10.816;2022-12-10T02:49:47;18.00;41.10
32753;DHT22;19121;52.428;10.816;2022-12-10T02:52:13;18.10;41.00
32753;DHT22;19121;52.428;10.816;2022-12-10T02:59:56;18.10;41.10
32753;DHT22;19121;52.428;10.816;2022-12-10T03:04:53;18.10;41.00
32753;DHT22;19121;52.428;10.816;2022-12-10T03:07:32;18.10;41.00
32753;DHT22;19121;52.428;10.816;2022-12-10T03:10:01;18.00;41.00
32753;DHT22;19121;52.428;10.816;2022-12-10T03:12:29;18.00;41.00
32753;DHT22;19121;52.428;10.816;2022-12-10T03:14:57;18.00;41.00
32753;DHT22;19121;52.428;10.816;2022-12-10T03:17:23;18.10;41.00
32753;DHT22;19121;52.428;10.816;2022-12-10T03:19:49;18.00;41.00
32753;DHT22;19121;52.428;10.816;2022-12-10T03:22:16;18.10;41.00
32753;DHT22;19121;52.428;10.816;2022-12-10T03:24:43;18.10;41.00
32753;DHT22;19121;52.428;10.816;2022-12-10T03:27:09;18.10;41.00
32753;DHT22;19121;52.428;10.816;2022-12-10T03:29:37;18.10;40.90
32753;DHT22;19121;52.428;10.816;2022-12-10T03:32:04;18.10;40.90
32753;DHT22;19121;52.428;10.816;2022-12-10T03:34:29;18.10;40.90
32753;DHT22;19121;52.428;10.816;2022-12-10T03:36:55;18.10;40.90
32753;DHT22;19121;52.428;10.816;2022-12-10T03:39:21;18.10;40.90
32753;DHT22;19121;52.428;10.816;2022-12-10T03:41:46;18.10;40.90
32753;DHT22;19121;52.428;10.816;2022-12-10T03:44:12;18.10;40.80
32753;DHT22;19121;52.428;10.816;2022-12-10T03:46:37;18.10;40.80
32753;DHT22;19121;52.428;10.816;2022-12-10T03:49:03;18.10;40.80
32753;DHT22;19121;52.428;10.816;2022-12-10T03:51:28;18.10;40.70
32753;DHT22;19121;52.428;10.816;2022-12-10T03:53:54;18.20;40.80
32753;DHT22;19121;52.428;10.816;2022-12-10T03:56:20;18.10;40.70
32753;DHT22;19121;52.428;10.816;2022-12-10T03:58:46;18.10;40.70
32753;DHT22;19121;52.428;10.816;2022-12-10T04:01:11;18.10;40.70
32753;DHT22;19121;52.428;10.816;2022-12-10T04:03:37;18.10;40.70
32753;DHT22;19121;52.428;10.816;2022-12-10T04:06:04;18.10;40.70
32753;DHT22;19121;52.428;10.816;2022-12-10T04:08:30;18.10;40.80
32753;DHT22;19121;52.428;10.816;2022-12-10T04:11:00;18.10;40.80
32753;DHT22;19121;52.428;10.816;2022-12-10T04:13:26;18.10;40.70
32753;DHT22;19121;52.428;10.816;2022-12-10T04:16:10;18.10;40.70
32753;DHT22;19121;52.428;10.816;2022-12-10T04:18:58;18.10;40.80
32753;DHT22;19121;52.428;10.816;2022-12-10T04:21:24;18.10;40.70
32753;DHT22;19121;52.428;10.816;2022-12-10T04:24:26;18.10;40.80
32753;DHT22;19121;52.428;10.816;2022-12-10T04:27:18;18.10;40.70
32753;DHT22;19121;52.428;10.816;2022-12-10T04:29:43;18.10;40.70
32753;DHT22;19121;52.428;10.816;2022-12-10T04:32:09;18.10;40.70
32753;DHT22;19121;52.428;10.816;2022-12-10T04:34:35;18.10;40.70
32753;DHT22;19121;52.428;10.816;2022-12-10T04:37:00;18.10;40.70
32753;DHT22;19121;52.428;10.816;2022-12-10T04:39:26;18.10;40.70
32753;DHT22;19121;52.428;10.816;2022-12-10T04:41:51;18.10;40.70
32753;DHT22;19121;52.428;10.816;2022-12-10T04:44:17;18.10;40.70
32753;DHT22;19121;52.428;10.816;2022-12-10T04:46:43;18.10;40.70
32753;DHT22;19121;52.428;10.816;2022-12-10T04:49:08;18.10;40.70
32753;DHT22;19121;52.428;10.816;2022-12-10T04:51:33;18.10;40.70
32753;DHT22;19121;52.428;10.816;2022-12-10T04:53:59;18.10;40.90
32753;DHT22;19121;52.428;10.816;2022-12-10T04:56:25;18.10;40.70
32753;DHT22;19121;52.428;10.816;2022-12-10T04:58:50;18.10;40.70
32753;DHT22;19121;52.428;10.816;2022-12-10T05:01:15;18.10;40.70
32753;DHT22;19121;52.428;10.816;2022-12-10T05:03:43;18.10;40.70
32753;DHT22;19121;52.428;10.816;2022-12-10T05:06:09;18.10;40.70
32753;DHT22;19121;52.428;10.816;2022-12-10T05:08:36;18.10;40.70
32753;DHT22;19121;52.428;10.816;2022-12-10T05:11:02;18.10;40.70
32753;DHT22;19121;52.428;10.816;2022-12-10T05:13:27;18.10;40.70
32753;DHT22;19121;52.428;10.816;2022-12-10T05:15:53;18.10;40.70
32753;DHT22;19121;52.428;10.816;2022-12-10T05:18:18;18.10;40.70
32753;DHT22;19121;52.428;10.816;2022-12-10T05:20:44;18.10;40.70
32753;DHT22;19121;52.428;10.816;2022-12-10T05:23:09;18.10;40.70
32753;DHT22;19121;52.428;10.816;2022-12-10T05:26:06;18.10;40.70
32753;DHT22;19121;52.428;10.816;2022-12-10T05:28:33;18.10;40.70
32753;DHT22;19121;52.428;10.816;2022-12-10T05:30:58;18.10;40.70
32753;DHT22;19121;52.428;10.816;2022-12-10T05:33:24;18.10;40.70
32753;DHT22;19121;52.428;10.816;2022-12-10T05:35:51;18.00;40.60
32753;DHT22;19121;52.428;10.816;2022-12-10T05:38:16;18.00;40.60
32753;DHT22;19121;52.428;10.816;2022-12-10T05:40:42;18.10;40.70
32753;DHT22;19121;52.428;10.816;2022-12-10T05:43:07;18.10;40.60
32753;DHT22;19121;52.428;10.816;2022-12-10T05:45:32;18.00;40.60
32753;DHT22;19121;52.428;10.816;2022-12-10T05:47:58;18.00;40.50
32753;DHT22;19121;52.428;10.816;2022-12-10T05:50:23;18.10;40.60
32753;DHT22;19121;52.428;10.816;2022-12-10T05:52:52;18.10;40.60
32753;DHT22;19121;52.428;10.816;2022-12-10T05:55:17;18.00;40.50
32753;DHT22;19121;52.428;10.816;2022-12-10T05:57:43;18.10;40.60
32753;DHT22;19121;52.428;10.816;2022-12-10T06:00:08;18.10;40.60
32753;DHT22;19121;52.428;10.816;2022-12-10T06:02:34;18.10;40.60
32753;DHT22;19121;52.428;10.816;2022-12-10T06:04:59;18.00;40.50
32753;DHT22;19121;52.428;10.816;2022-12-10T06:07:25;18.00;40.50
32753;DHT22;19121;52.428;10.816;2022-12-10T06:09:50;18.00;40.50
32753;DHT22;19121;52.428;10.816;2022-12-10T06:12:15;18.00;40.50
32753;DHT22;19121;52.428;10.816;2022-12-10T06:14:41;18.00;40.50
32753;DHT22;19121;52.428;10.816;2022-12-10T06:17:06;18.10;40.60
32753;DHT22;19121;52.428;10.816;2022-12-10T06:19:32;18.10;40.50
32753;DHT22;19121;52.428;10.816;2022-12-10T06:21:57;18.10;40.50
32753;DHT22;19121;52.428;10.816;2022-12-10T06:24:23;18.00;40.50
32753;DHT22;19121;52.428;10.816;2022-12-10T06:26:49;18.10;40.50
32753;DHT22;19121;52.428;10.816;2022-12-10T06:29:14;18.10;40.40
32753;DHT22;19121;52.428;10.816;2022-12-10T06:31:40;18.10;40.50
32753;DHT22;19121;52.428;10.816;2022-12-10T06:34:05;18.10;40.50
32753;DHT22;19121;52.428;10.816;2022-12-10T06:36:30;18.10;40.40
32753;DHT22;19121;52.428;10.816;2022-12-10T06:38:56;18.10;40.40
32753;DHT22;19121;52.428;10.816;2022-12-10T06:41:21;18.10;40.40
32753;DHT22;19121;52.428;10.816;2022-12-10T06:43:47;18.10;40.40
32753;DHT22;19121;52.428;10.816;2022-12-10T06:46:13;18.10;40.40
32753;DHT22;19121;52.428;10.816;2022-12-10T06:48:39;18.10;40.40
32753;DHT22;19121;52.428;10.816;2022-12-10T06:51:05;18.10;40.40
32753;DHT22;19121;52.428;10.816;2022-12-10T06:53:31;18.10;40.40
32753;DHT22;19121;52.428;10.816;2022-12-10T06:55:59;18.10;40.40
32753;DHT22;19121;52.428;10.816;2022-12-10T06:58:26;18.10;40.40
32753;DHT22;19121;52.428;10.816;2022-12-10T07:00:52;18.10;40.40
32753;DHT22;19121;52.428;10.816;2022-12-10T07:03:17;18.10;40.40
32753;DHT22;19121;52.428;10.816;2022-12-10T07:05:43;18.10;40.40
32753;DHT22;19121;52.428;10.816;2022-12-10T07:08:08;18.10;41.00
32753;DHT22;19121;52.428;10.816;2022-12-10T07:10:34;18.10;40.40
32753;DHT22;19121;52.428;10.816;2022-12-10T07:12:59;18.10;40.40
32753;DHT22;19121;52.428;10.816;2022-12-10T07:15:25;18.10;40.40
32753;DHT22;19121;52.428;10.816;2022-12-10T07:17:52;18.10;40.40
32753;DHT22;19121;52.428;10.816;2022-12-10T07:20:17;18.10;40.40
32753;DHT22;19121;52.428;10.816;2022-12-10T07:22:43;18.10;40.40
32753;DHT22;19121;52.428;10.816;2022-12-10T07:25:09;18.10;40.40
32753;DHT22;19121;52.428;10.816;2022-12-10T07:27:34;18.10;40.40
32753;DHT22;19121;52.428;10.816;2022-12-10T07:30:00;18.10;40.40
32753;DHT22;19121;52.428;10.816;2022-12-10T07:32:26;18.10;40.40
32753;DHT22;19121;52.428;10.816;2022-12-10T07:34:52;18.10;40.40
32753;DHT22;19121;52.428;10.816;2022-12-10T07:37:17;18.10;40.40
32753;DHT22;19121;52.428;10.816;2022-12-10T07:39:42;18.10;40.40
32753;DHT22;19121;52.428;10.816;2022-12-10T07:42:08;18.10;40.40
32753;DHT22;19121;52.428;10.816;2022-12-10T07:44:34;18.10;40.30
32753;DHT22;19121;52.428;10.816;2022-12-10T07:46:59;18.10;40.30
32753;DHT22;19121;52.428;10.816;2022-12-10T07:49:24;18.10;40.40
32753;DHT22;19121;52.428;10.816;2022-12-10T07:51:50;18.10;40.30
32753;DHT22;19121;52.428;10.816;2022-12-10T07:54:16;18.10;40.30
32753;DHT22;19121;52.428;10.816;2022-12-10T07:56:41;18.10;40.40
32753;DHT22;19121;52.428;10.816;2022-12-10T07:59:07;18.10;40.40
32753;DHT22;19121;52.428;10.816;2022-12-10T08:01:33;18.10;40.30
32753;DHT22;19121;52.428;10.816;2022-12-10T08:03:58;18.10;40.30
32753;DHT22;19121;52.428;10.816;2022-12-10T08:06:24;18.10;40.30
32753;DHT22;19121;52.428;10.816;2022-12-10T08:08:50;18.10;40.30
32753;DHT22;19121;52.428;10.816;2022-12-10T08:11:16;18.10;40.30
32753;DHT22;19121;52.428;10.816;2022-12-10T08:13:42;18.10;40.30
32753;DHT22;19121;52.428;10.816;2022-12-10T08:16:10;18.10;40.30
32753;DHT22;19121;52.428;10.816;2022-12-10T08:18:36;18.10;40.30
32753;DHT22;19121;52.428;10.816;2022-12-10T08:21:05;18.10;40.30
32753;DHT22;19121;52.428;10.816;2022-12-10T08:23:30;18.10;40.30
32753;DHT22;19121;52.428;10.816;2022-12-10T08:25:56;18.10;40.30
32753;DHT22;19121;52.428;10.816;2022-12-10T08:28:21;18.10;40.20
32753;DHT22;19121;52.428;10.816;2022-12-10T08:30:47;18.10;40.30
32753;DHT22;19121;52.428;10.816;2022-12-10T08:33:12;18.10;40.30
32753;DHT22;19121;52.428;10.816;2022-12-10T08:35:37;18.10;40.30
32753;DHT22;19121;52.428;10.816;2022-12-10T08:38:03;18.10;40.30
32753;DHT22;19121;52.428;10.816;2022-12-10T08:40:29;18.10;40.20
32753;DHT22;19121;52.428;10.816;2022-12-10T08:42:54;18.10;40.20
32753;DHT22;19121;52.428;10.816;2022-12-10T08:45:19;18.10;40.20
32753;DHT22;19121;52.428;10.816;2022-12-10T08:47:45;18.10;40.20
32753;DHT22;19121;52.428;10.816;2022-12-10T08:50:10;18.10;40.20
32753;DHT22;19121;52.428;10.816;2022-12-10T08:52:35;18.10;40.20
32753;DHT22;19121;52.428;10.816;2022-12-10T08:55:02;18.10;40.10
32753;DHT22;19121;52.428;10.816;2022-12-10T08:57:28;18.10;40.20
32753;DHT22;19121;52.428;10.816;2022-12-10T08:59:53;18.10;40.20
32753;DHT22;19121;52.428;10.816;2022-12-10T09:02:18;18.10;40.20
32753;DHT22;19121;52.428;10.816;2022-12-10T09:04:44;18.10;40.20
32753;DHT22;19121;52.428;10.816;2022-12-10T09:07:11;18.10;40.20
32753;DHT22;19121;52.428;10.816;2022-12-10T09:09:37;18.10;40.20
32753;DHT22;19121;52.428;10.816;2022-12-10T09:12:02;18.10;40.10
32753;DHT22;19121;52.428;10.816;2022-12-10T09:14:28;18.10;40.20
32753;DHT22;19121;52.428;10.816;2022-12-10T09:16:53;18.10;40.10
32753;DHT22;19121;52.428;10.816;2022-12-10T09:19:19;18.10;40.20
32753;DHT22;19121;52.428;10.816;2022-12-10T09:21:45;18.10;40.10
32753;DHT22;19121;52.428;10.816;2022-12-10T09:24:10;18.10;40.10
32753;DHT22;19121;52.428;10.816;2022-12-10T09:26:35;18.10;40.10
32753;DHT22;19121;52.428;10.816;2022-12-10T09:29:01;18.10;40.10
32753;DHT22;19121;52.428;10.816;2022-12-10T09:31:26;18.10;40.10
32753;DHT22;19121;52.428;10.816;2022-12-10T09:33:52;18.10;40.10
32753;DHT22;19121;52.428;10.816;2022-12-10T09:36:18;18.10;40.10
32753;DHT22;19121;52.428;10.816;2022-12-10T09:38:44;18.20;40.10
32753;DHT22;19121;52.428;10.816;2022-12-10T09:48:49;18.20;40.10
32753;DHT22;19121;52.428;10.816;2022-12-10T09:51:26;18.20;40.10
32753;DHT22;19121;52.428;10.816;2022-12-10T09:53:52;18.20;40.00
32753;DHT22;19121;52.428;10.816;2022-12-10T09:56:28;18.20;40.10
32753;DHT22;19121;52.428;10.816;2022-12-10T09:58:55;18.20;40.00
32753;DHT22;19121;52.428;10.816;2022-12-10T10:01:22;18.20;40.00
32753;DHT22;19121;52.428;10.816;2022-12-10T10:03:49;18.20;40.00
32753;DHT22;19121;52.428;10.816;2022-12-10T10:06:15;18.20;40.00
32753;DHT22;19121;52.428;10.816;2022-12-10T10:08:45;18.20;40.00
32753;DHT22;19121;52.428;10.816;2022-12-10T10:11:12;18.20;40.00
32753;DHT22;19121;52.428;10.816;2022-12-10T10:13:39;18.20;40.00
32753;DHT22;19121;52.428;10.816;2022-12-10T10:16:25;18.20;40.00
32753;DHT22;19121;52.428;10.816;2022-12-10T10:18:53;18.20;40.00
32753;DHT22;19121;52.428;10.816;2022-12-10T10:21:21;18.10;39.90
32753;DHT22;19121;52.428;10.816;2022-12-10T10:23:46;18.20;40.00
32753;DHT22;19121;52.428;10.816;2022-12-10T10:26:12;18.20;40.00
32753;DHT22;19121;52.428;10.816;2022-12-10T10:28:38;18.20;40.20
32753;DHT22;19121;52.428;10.816;2022-12-10T10:31:07;18.20;40.00
32753;DHT22;19121;52.428;10.816;2022-12-10T10:33:45;18.20;40.00
32753;DHT22;19121;52.428;10.816;2022-12-10T10:36:12;18.20;40.00
32753;DHT22;19121;52.428;10.816;2022-12-10T10:38:38;18.20;40.00
32753;DHT22;19121;52.428;10.816;2022-12-10T10:41:03;18.20;40.00
32753;DHT22;19121;52.428;10.816;2022-12-10T10:43:42;18.20;39.90
32753;DHT22;19121;52.428;10.816;2022-12-10T10:48:38;18.20;39.90
32753;DHT22;19121;52.428;10.816;2022-12-10T10:51:05;18.20;39.90
32753;DHT22;19121;52.428;10.816;2022-12-10T10:53:33;18.20;40.00
32753;DHT22;19121;52.428;10.816;2022-12-10T10:56:17;18.20;39.90
32753;DHT22;19121;52.428;10.816;2022-12-10T10:58:56;18.20;39.90
32753;DHT22;19121;52.428;10.816;2022-12-10T11:01:24;18.20;39.90
32753;DHT22;19121;52.428;10.816;2022-12-10T11:03:53;18.20;39.90
32753;DHT22;19121;52.428;10.816;2022-12-10T11:06:18;18.20;39.90
32753;DHT22;19121;52.428;10.816;2022-12-10T11:08:45;18.20;39.90
32753;DHT22;19121;52.428;10.816;2022-12-10T11:11:12;18.20;39.90
32753;DHT22;19121;52.428;10.816;2022-12-10T11:13:37;18.20;39.90
32753;DHT22;19121;52.428;10.816;2022-12-10T11:18:36;18.20;39.80
32753;DHT22;19121;52.428;10.816;2022-12-10T11:21:04;18.20;39.90
32753;DHT22;19121;52.428;10.816;2022-12-10T11:23:31;18.20;39.90
32753;DHT22;19121;52.428;10.816;2022-12-10T11:26:06;18.20;39.90
32753;DHT22;19121;52.428;10.816;2022-12-10T11:28:38;18.20;39.80
32753;DHT22;19121;52.428;10.816;2022-12-10T11:36:48;18.20;39.80
32753;DHT22;19121;52.428;10.816;2022-12-10T11:39:19;18.20;39.80
32753;DHT22;19121;52.428;10.816;2022-12-10T11:41:56;18.20;39.80
32753;DHT22;19121;52.428;10.816;2022-12-10T11:46:56;18.30;39.80
32753;DHT22;19121;52.428;10.816;2022-12-10T11:49:25;18.20;39.70
32753;DHT22;19121;52.428;10.816;2022-12-10T11:54:27;18.20;39.80
32753;DHT22;19121;52.428;10.816;2022-12-10T11:57:03;18.20;39.80
32753;DHT22;19121;52.428;10.816;2022-12-10T11:59:34;18.30;39.80
32753;DHT22;19121;52.428;10.816;2022-12-10T12:02:18;18.20;39.70
32753;DHT22;19121;52.428;10.816;2022-12-10T12:05:03;18.20;39.70
32753;DHT22;19121;52.428;10.816;2022-12-10T12:07:38;18.20;39.70
32753;DHT22;19121;52.428;10.816;2022-12-10T12:10:27;18.20;39.70
32753;DHT22;19121;52.428;10.816;2022-12-10T12:15:43;18.20;39.70
32753;DHT22;19121;52.428;10.816;2022-12-10T12:18:18;18.30;39.80
32753;DHT22;19121;52.428;10.816;2022-12-10T12:20:47;18.20;39.70
32753;DHT22;19121;52.428;10.816;2022-12-10T12:23:19;18.30;39.70
32753;DHT22;19121;52.428;10.816;2022-12-10T12:25:51;18.20;39.70
32753;DHT22;19121;52.428;10.816;2022-12-10T12:28:28;18.30;39.70
32753;DHT22;19121;52.428;10.816;2022-12-10T12:31:08;18.30;39.70
32753;DHT22;19121;52.428;10.816;2022-12-10T12:33:45;18.30;39.70
32753;DHT22;19121;52.428;10.816;2022-12-10T12:36:22;18.20;39.70
32753;DHT22;19121;52.428;10.816;2022-12-10T12:38:59;18.30;39.70
32753;DHT22;19121;52.428;10.816;2022-12-10T12:44:19;18.30;39.70
32753;DHT22;19121;52.428;10.816;2022-12-10T12:46:43;18.30;39.70
32753;DHT22;19121;52.428;10.816;2022-12-10T12:51:39;18.30;39.70
32753;DHT22;19121;52.428;10.816;2022-12-10T12:54:07;18.30;39.70
32753;DHT22;19121;52.428;10.816;2022-12-10T12:56:51;18.30;39.70
32753;DHT22;19121;52.428;10.816;2022-12-10T13:04:46;18.20;39.60
32753;DHT22;19121;52.428;10.816;2022-12-10T13:07:26;18.30;39.70
32753;DHT22;19121;52.428;10.816;2022-12-10T13:12:45;18.30;39.70
32753;DHT22;19121;52.428;10.816;2022-12-10T13:18:01;18.30;39.70
32753;DHT22;19121;52.428;10.816;2022-12-10T13:20:29;18.30;39.70
32753;DHT22;19121;52.428;10.816;2022-12-10T13:22:56;18.30;39.60
32753;DHT22;19121;52.428;10.816;2022-12-10T13:25:37;18.30;39.70
32753;DHT22;19121;52.428;10.816;2022-12-10T13:28:15;18.30;39.60
32753;DHT22;19121;52.428;10.816;2022-12-10T13:30:41;18.30;39.60
32753;DHT22;19121;52.428;10.816;2022-12-10T13:33:14;18.30;39.60
32753;DHT22;19121;52.428;10.816;2022-12-10T13:35:42;18.30;39.60
32753;DHT22;19121;52.428;10.816;2022-12-10T13:38:17;18.30;39.70
32753;DHT22;19121;52.428;10.816;2022-12-10T13:40:43;18.30;39.60
32753;DHT22;19121;52.428;10.816;2022-12-10T13:43:40;18.30;39.60
32753;DHT22;19121;52.428;10.816;2022-12-10T13:46:26;18.30;39.60
32753;DHT22;19121;52.428;10.816;2022-12-10T13:48:52;18.30;39.60
32753;DHT22;19121;52.428;10.816;2022-12-10T13:51:24;18.30;39.60
32753;DHT22;19121;52.428;10.816;2022-12-10T13:53:58;18.30;39.60
32753;DHT22;19121;52.428;10.816;2022-12-10T13:56:30;18.30;39.60
32753;DHT22;19121;52.428;10.816;2022-12-10T14:01:34;18.30;39.60
32753;DHT22;19121;52.428;10.816;2022-12-10T14:06:33;18.30;39.60
32753;DHT22;19121;52.428;10.816;2022-12-10T14:09:09;18.30;39.60
32753;DHT22;19121;52.428;10.816;2022-12-10T14:11:40;18.30;39.60
32753;DHT22;19121;52.428;10.816;2022-12-10T14:14:10;18.40;39.60
32753;DHT22;19121;52.428;10.816;2022-12-10T14:16:36;18.30;39.60
32753;DHT22;19121;52.428;10.816;2022-12-10T14:19:06;18.30;39.60
32753;DHT22;19121;52.428;10.816;2022-12-10T14:21:34;18.30;39.60
32753;DHT22;19121;52.428;10.816;2022-12-10T14:24:00;18.30;39.60
32753;DHT22;19121;52.428;10.816;2022-12-10T14:26:27;18.30;39.60
32753;DHT22;19121;52.428;10.816;2022-12-10T14:28:57;18.30;39.60
32753;DHT22;19121;52.428;10.816;2022-12-10T14:31:30;18.30;39.60
32753;DHT22;19121;52.428;10.816;2022-12-10T14:33:58;18.30;39.60
32753;DHT22;19121;52.428;10.816;2022-12-10T14:36:26;18.30;39.60
32753;DHT22;19121;52.428;10.816;2022-12-10T14:38:52;18.30;39.60
32753;DHT22;19121;52.428;10.816;2022-12-10T14:41:19;18.30;39.50
32753;DHT22;19121;52.428;10.816;2022-12-10T14:43:45;18.30;40.20
32753;DHT22;19121;52.428;10.816;2022-12-10T14:46:12;18.30;39.50
32753;DHT22;19121;52.428;10.816;2022-12-10T14:48:40;18.30;39.50
32753;DHT22;19121;52.428;10.816;2022-12-10T14:51:10;18.30;39.50
32753;DHT22;19121;52.428;10.816;2022-12-10T14:53:37;18.30;39.50
32753;DHT22;19121;52.428;10.816;2022-12-10T14:56:03;18.30;39.50
32753;DHT22;19121;52.428;10.816;2022-12-10T14:58:32;18.30;39.50
32753;DHT22;19121;52.428;10.816;2022-12-10T15:01:02;18.30;39.50
32753;DHT22;19121;52.428;10.816;2022-12-10T15:03:29;18.30;39.50
32753;DHT22;19121;52.428;10.816;2022-12-10T15:05:59;18.30;39.50
32753;DHT22;19121;52.428;10.816;2022-12-10T15:08:26;18.30;39.50
32753;DHT22;19121;52.428;10.816;2022-12-10T15:10:54;18.30;39.50
32753;DHT22;19121;52.428;10.816;2022-12-10T15:13:37;18.30;39.50
32753;DHT22;19121;52.428;10.816;2022-12-10T15:16:04;18.30;39.50
32753;DHT22;19121;52.428;10.816;2022-12-10T15:21:03;18.30;39.50
32753;DHT22;19121;52.428;10.816;2022-12-10T15:28:29;18.30;39.50
32753;DHT22;19121;52.428;10.816;2022-12-10T15:31:09;18.30;39.50
32753;DHT22;19121;52.428;10.816;2022-12-10T15:33:36;18.30;39.50
32753;DHT22;19121;52.428;10.816;2022-12-10T15:36:03;18.30;39.50
32753;DHT22;19121;52.428;10.816;2022-12-10T15:38:28;18.30;39.50
32753;DHT22;19121;52.428;10.816;2022-12-10T15:41:10;18.30;39.50
32753;DHT22;19121;52.428;10.816;2022-12-10T15:43:53;18.30;39.40
32753;DHT22;19121;52.428;10.816;2022-12-10T15:46:20;18.30;40.10
32753;DHT22;19121;52.428;10.816;2022-12-10T15:48:45;18.30;39.40
32753;DHT22;19121;52.428;10.816;2022-12-10T15:51:11;18.30;39.40
32753;DHT22;19121;52.428;10.816;2022-12-10T15:53:37;18.30;39.40
32753;DHT22;19121;52.428;10.816;2022-12-10T15:56:03;18.30;39.40
32753;DHT22;19121;52.428;10.816;2022-12-10T15:58:28;18.30;39.40
32753;DHT22;19121;52.428;10.816;2022-12-10T16:00:54;18.30;39.40
32753;DHT22;19121;52.428;10.816;2022-12-10T16:03:19;18.30;39.40
32753;DHT22;19121;52.428;10.816;2022-12-10T16:05:45;18.30;39.40
32753;DHT22;19121;52.428;10.816;2022-12-10T16:08:24;18.30;39.40
32753;DHT22;19121;52.428;10.816;2022-12-10T16:10:52;18.30;39.40
32753;DHT22;19121;52.428;10.816;2022-12-10T16:13:31;18.30;39.40
32753;DHT22;19121;52.428;10.816;2022-12-10T16:15:58;18.30;39.40
32753;DHT22;19121;52.428;10.816;2022-12-10T16:18:24;18.30;39.40
32753;DHT22;19121;52.428;10.816;2022-12-10T16:20:50;18.20;39.40
32753;DHT22;19121;52.428;10.816;2022-12-10T16:23:15;18.30;39.40
32753;DHT22;19121;52.428;10.816;2022-12-10T16:25:41;18.30;39.50
32753;DHT22;19121;52.428;10.816;2022-12-10T16:28:13;18.20;39.40